CST,Max TemperatureF,Mean TemperatureF,Min TemperatureF,Max Dew PointF,MeanDew PointF,Min DewpointF,Max Humidity, Mean Humidity, Min Humidity, Max Sea Level PressureIn, Mean Sea Level PressureIn, Min Sea Level PressureIn, Max VisibilityMiles, Mean VisibilityMiles, Min VisibilityMiles, Max Wind SpeedMPH, Mean Wind SpeedMPH, Max Gust SpeedMPH,PrecipitationIn, CloudCover, Events, WindDirDegrees
2012-11-1,64,48,32,41,34,25,81,62,39,30.00,29.96,29.90,10,9,2,13,6,,0.00,2,,287
2012-11-2,50,41,32,32,30,28,87,67,46,30.09,30.04,30.00,10,10,10,15,8,17,0.00,0,,68
2012-11-3,53,45,37,32,30,28,75,59,41,30.21,30.14,30.05,10,10,8,12,7,,0.00,2,,40
2012-11-4,48,40,32,39,35,28,93,82,71,30.24,30.18,30.11,10,9,3,9,5,,0.00,4,Rain,142
2012-11-5,41,40,39,39,38,37,100,96,87,30.14,30.10,30.05,10,6,2,15,10,21,0.00,8,Rain,85
2012-11-6,53,45,37,45,38,32,100,82,54,30.10,29.97,29.89,10,7,1,22,9,28,0.00,8,Rain,260
2012-11-7,48,40,32,37,33,32,100,75,54,30.16,30.10,29.98,10,10,7,20,11,24,0.00,4,Rain,340
2012-11-8,59,46,32,37,35,30,100,73,39,30.15,30.05,29.96,10,10,10,15,9,20,0.00,0,,147
2012-11-9,64,53,42,55,46,36,88,74,59,29.97,29.89,29.82,10,10,9,14,7,17,0.00,2,,149
2012-11-10,73,66,59,57,54,46,88,66,49,29.83,29.75,29.68,10,10,10,25,17,36,0.00,0,,172
2012-11-11,64,45,24,57,39,18,100,87,59,30.15,29.87,29.66,10,8,1,23,15,29,0.00,6,Rain,274
2012-11-12,37,30,23,23,20,18,86,69,48,30.41,30.27,30.16,10,10,10,24,13,30,0.00,0,,257
2012-11-13,48,36,23,28,24,18,86,66,40,30.46,30.41,30.36,10,10,10,12,6,,0.00,0,,165
2012-11-14,55,44,33,32,27,23,81,58,29,30.41,30.35,30.30,10,10,10,15,7,20,0.00,0,,172
2012-11-15,57,46,35,34,30,25,87,60,38,30.40,30.31,30.28,10,10,10,13,7,17,0.00,1,,212
2012-11-16,55,42,28,37,32,28,100,75,38,30.47,30.42,30.39,10,10,8,8,5,,0.00,0,,350
2012-11-17,59,46,33,32,32,28,93,64,36,30.43,30.37,30.32,10,10,6,16,9,22,0.00,0,,149
2012-11-18,59,46,33,32,31,27,75,53,36,30.32,30.25,30.19,10,10,10,16,9,21,0.00,1,,149
2012-11-19,59,50,41,46,42,32,100,71,47,30.19,30.11,30.05,10,10,7,20,11,24,0.00,2,Rain,172
2012-11-20,59,47,35,46,41,36,100,84,59,30.21,30.16,30.06,10,8,4,9,6,,0.00,0,,302
2012-11-21,66,50,35,46,39,36,100,71,37,30.20,30.12,29.99,10,7,2,16,9,22,0.00,0,,175
2012-11-22,66,52,37,50,40,32,87,60,48,30.16,29.92,29.78,10,10,8,25,16,31,0.00,0,,207
2012-11-23,37,28,19,32,18,14,87,64,48,30.39,30.31,30.15,10,10,10,28,16,36,0.00,1,,297
2012-11-24,35,25,15,23,17,12,93,68,44,30.37,30.17,29.88,,,,13,7,16,0.00,0,,199
2012-11-25,44,36,28,28,26,23,86,66,53,30.12,29.97,29.86,10,10,10,14,8,,0.00,1,,329
2012-11-26,32,24,15,25,18,9,75,64,55,30.44,30.31,30.12,,,,16,9,22,0.00,1,,356
2012-11-27,35,22,10,16,12,7,85,59,35,30.44,30.33,30.25,,,,15,6,18,0.00,0,,203
2012-11-28,46,32,19,27,22,16,93,67,43,30.41,30.31,30.20,10,10,1,9,7,,0.00,0,,180
2012-11-29,51,40,30,36,32,27,100,75,54,30.19,30.07,29.99,10,10,5,16,7,20,0.00,0,,161
2012-11-30,55,44,33,39,36,32,100,79,51,30.08,30.03,29.98,10,10,7,9,6,,0.00,0,,207